Time;durP1;ratioP1;P1;durP2;ratioP2;P2;SDS_P1;SDS_P2;PMS_P1;PMS_P2;Temp;Humidity;BMP_temperature;BMP_pressure;BME280_temperature;BME280_humidity;BME280_pressure;Samples;Min_cycle;Max_cycle;Signal;HPM_P1;HPM_P2
2022/01/12 00:00:54;;;;;;;10.82;6.80;;;;;;;1.62;71.00;102394.84;8169750;35;20199;-75
2022/01/12 00:05:57;;;;;;;12.50;6.45;;;;;;;1.65;70.10;102399.22;8170715;35;20160;-75
2022/01/12 00:11:01;;;;;;;11.00;7.00;;;;;;;1.81;69.39;102382.25;8170781;35;20156;-76
2022/01/12 00:16:07;;;;;;;7.78;6.57;;;;;;;1.88;69.22;102365.34;8171147;35;20195;-76
2022/01/12 00:21:10;;;;;;;9.68;6.05;;;;;;;1.90;68.83;102354.75;8189655;35;20493;-75
2022/01/12 00:26:26;;;;;;;12.45;6.30;;;;;;;1.91;68.58;102370.59;8170397;35;20645;-75
2022/01/12 00:36:51;;;;;;;9.48;5.50;;;;;;;2.04;66.82;102370.47;8170354;35;20204;-77
2022/01/12 00:41:54;;;;;;;7.07;5.13;;;;;;;2.20;66.16;102356.09;8189776;35;20194;-75
2022/01/12 00:46:58;;;;;;;9.05;4.80;;;;;;;2.24;66.07;102346.28;8190242;35;20198;-77
2022/01/12 00:52:01;;;;;;;7.00;4.63;;;;;;;2.16;66.04;102341.97;8190131;35;20164;-76
2022/01/12 00:57:05;;;;;;;6.88;4.68;;;;;;;2.26;65.88;102357.75;8169351;35;20195;-75
2022/01/12 01:02:11;;;;;;;12.10;6.57;;;;;;;2.17;65.82;102361.44;8188752;35;20277;-76
2022/01/12 01:07:14;;;;;;;7.43;4.72;;;;;;;2.17;66.12;102380.88;8189034;35;20172;-76
2022/01/12 01:12:18;;;;;;;10.52;4.85;;;;;;;2.22;66.17;102370.16;8169444;35;20234;-77
2022/01/12 01:28:06;;;;;;;10.35;7.00;;;;;;;2.02;68.20;102390.81;8167670;35;20573;-77
2022/01/12 01:33:16;;;;;;;7.82;5.30;;;;;;;2.06;67.38;102385.44;8188241;35;20607;-77
2022/01/12 01:38:21;;;;;;;8.35;5.07;;;;;;;2.20;66.94;102398.50;8167899;35;20724;-77
2022/01/12 01:43:39;;;;;;;8.38;5.82;;;;;;;2.29;66.17;102395.72;8187720;35;20298;-76
2022/01/12 01:54:04;;;;;;;9.35;6.07;;;;;;;2.14;66.75;102415.38;8188143;35;20534;-75
2022/01/12 01:59:08;;;;;;;8.20;5.45;;;;;;;2.12;67.54;102424.25;8187747;35;20266;-76
2022/01/12 02:04:16;;;;;;;10.10;5.97;;;;;;;2.12;67.46;102441.03;8187773;35;20716;-74
2022/01/12 02:09:20;;;;;;;9.90;5.97;;;;;;;2.17;66.91;102441.00;8166809;35;20187;-77
2022/01/12 02:14:30;;;;;;;11.32;6.75;;;;;;;1.85;67.58;102446.69;8187145;35;20168;-76
2022/01/12 02:19:54;;;;;;;13.23;6.30;;;;;;;1.99;66.58;102449.16;8167537;35;20267;-76
2022/01/12 02:35:47;;;;;;;8.95;5.70;;;;;;;2.15;66.42;102442.78;8171983;35;20198;-75
2022/01/12 02:40:54;;;;;;;14.63;6.97;;;;;;;2.25;66.10;102441.75;8191731;35;20458;-76
2022/01/12 02:51:29;;;;;;;11.73;5.88;;;;;;;2.23;66.43;102440.91;8191898;35;20996;-76
2022/01/12 02:56:36;;;;;;;9.13;6.13;;;;;;;2.18;66.46;102467.47;8172047;35;20237;-76
2022/01/12 03:02:04;;;;;;;9.40;6.07;;;;;;;2.14;66.95;102480.81;8191455;35;20799;-75
2022/01/12 03:07:15;;;;;;;12.38;6.88;;;;;;;2.27;67.03;102469.13;8171689;35;20808;-75
2022/01/12 03:12:21;;;;;;;11.65;6.50;;;;;;;2.29;66.57;102454.06;8170150;35;20191;-77
2022/01/12 03:17:25;;;;;;;10.80;6.22;;;;;;;2.26;66.08;102446.16;8191530;35;20152;-76
2022/01/12 03:22:29;;;;;;;7.53;5.43;;;;;;;2.33;66.11;102441.63;8190658;35;20198;-75
2022/01/12 03:27:33;;;;;;;9.35;5.90;;;;;;;2.14;66.17;102441.91;8190902;35;20692;-76
2022/01/12 03:32:42;;;;;;;7.85;5.55;;;;;;;2.03;66.17;102441.16;8170085;35;20159;-75
2022/01/12 03:37:54;;;;;;;10.52;5.78;;;;;;;2.18;66.27;102437.44;8171610;35;20230;-75
2022/01/12 03:42:59;;;;;;;10.23;5.97;;;;;;;2.07;66.46;102456.13;8193183;35;20947;-76
2022/01/12 03:48:02;;;;;;;8.02;5.60;;;;;;;2.21;66.26;102455.94;8193159;35;20356;-76
2022/01/12 03:53:06;;;;;;;7.47;5.70;;;;;;;2.11;66.40;102441.94;8190614;35;20360;-76
2022/01/12 03:58:11;;;;;;;9.15;5.20;;;;;;;2.11;66.76;102430.44;8190283;35;20219;-76
2022/01/12 04:03:15;;;;;;;9.25;5.35;;;;;;;2.01;67.20;102435.00;8189806;35;20378;-75
2022/01/12 04:08:23;;;;;;;7.63;5.45;;;;;;;1.91;68.78;102436.88;8190590;35;20203;-76
2022/01/12 04:13:31;;;;;;;10.18;6.13;;;;;;;1.76;70.32;102442.38;8190072;35;20239;-76
2022/01/12 04:18:36;;;;;;;9.45;5.30;;;;;;;1.42;71.99;102453.31;8169253;35;20196;-76
2022/01/12 04:23:42;;;;;;;10.63;5.47;;;;;;;1.57;71.70;102451.44;8188788;35;20197;-76
2022/01/12 04:28:47;;;;;;;11.95;5.40;;;;;;;1.55;72.21;102432.88;8188850;35;20724;-77
2022/01/12 04:33:50;;;;;;;13.15;6.70;;;;;;;1.70;71.13;102435.38;8170517;35;20303;-75
2022/01/12 04:38:54;;;;;;;8.68;5.80;;;;;;;1.60;71.37;102446.97;8189246;35;20302;-76
2022/01/12 04:43:58;;;;;;;12.35;6.22;;;;;;;1.60;71.52;102443.44;8189606;35;20299;-77
2022/01/12 04:49:23;;;;;;;9.25;5.93;;;;;;;1.61;71.15;102450.47;8169717;35;20199;-76
2022/01/12 04:54:26;;;;;;;9.95;5.78;;;;;;;1.50;71.56;102475.31;8189452;35;20148;-75
2022/01/12 04:59:34;;;;;;;9.02;5.88;;;;;;;1.55;71.57;102485.00;8188656;35;20601;-75
2022/01/12 05:15:30;;;;;;;10.30;6.00;;;;;;;1.58;71.97;102480.53;8189516;35;20242;-77
2022/01/12 05:20:34;;;;;;;8.82;6.13;;;;;;;1.27;73.40;102487.91;8188938;35;20201;-76
2022/01/12 05:25:38;;;;;;;9.98;7.30;;;;;;;1.41;74.18;102490.44;8188316;35;20498;-75
2022/01/12 05:30:42;;;;;;;14.40;6.80;;;;;;;1.33;74.86;102485.19;8188136;35;20534;-75
2022/01/12 05:35:46;;;;;;;13.52;7.90;;;;;;;1.05;76.47;102481.91;8187952;35;20194;-75
2022/01/12 05:40:55;;;;;;;12.70;8.18;;;;;;;1.04;77.30;102478.38;8168444;35;20542;-76
2022/01/12 05:46:09;;;;;;;14.23;8.75;;;;;;;1.13;77.11;102489.78;8188101;35;21052;-75
2022/01/12 05:51:13;;;;;;;14.93;10.18;;;;;;;0.83;78.31;102499.72;8169704;35;20271;-76
2022/01/12 05:56:17;;;;;;;14.70;9.18;;;;;;;1.28;76.67;102490.53;8166135;35;20642;-76
2022/01/12 06:01:23;;;;;;;13.70;9.48;;;;;;;1.20;76.89;102496.78;8187961;35;20154;-75
2022/01/12 06:06:28;;;;;;;17.48;11.32;;;;;;;1.19;77.71;102490.63;8191933;35;20226;-76
2022/01/12 06:11:31;;;;;;;19.77;11.38;;;;;;;1.18;77.41;102490.59;8172618;35;20160;-76
2022/01/12 06:16:39;;;;;;;19.00;10.52;;;;;;;1.27;76.87;102493.19;8191775;35;20171;-75
2022/01/12 06:21:42;;;;;;;18.80;11.60;;;;;;;1.46;76.76;102497.44;8192807;35;20202;-77
2022/01/12 06:26:51;;;;;;;21.85;11.75;;;;;;;1.32;76.95;102519.63;8172328;35;20239;-75
2022/01/12 06:31:58;;;;;;;19.65;11.90;;;;;;;1.47;76.46;102516.84;8171346;35;20609;-76
2022/01/12 06:37:06;;;;;;;21.35;12.57;;;;;;;1.39;76.69;102524.00;8172100;35;20215;-74
2022/01/12 06:42:10;;;;;;;20.27;12.85;;;;;;;1.25;76.71;102509.09;8192207;35;20218;-76
2022/01/12 06:47:15;;;;;;;21.48;12.45;;;;;;;1.05;78.58;102506.59;8192261;35;20720;-76
2022/01/12 06:52:19;;;;;;;20.33;12.30;;;;;;;1.16;77.84;102524.19;8172209;35;21389;-74
2022/01/12 06:57:22;;;;;;;26.33;13.95;;;;;;;1.30;77.40;102517.00;8191064;35;20203;-75
2022/01/12 07:02:26;;;;;;;21.30;13.63;;;;;;;1.31;77.40;102537.28;8191617;35;21006;-75
2022/01/12 07:07:30;;;;;;;23.02;12.90;;;;;;;1.28;78.29;102532.88;8192365;35;20697;-76
2022/01/12 07:12:39;;;;;;;23.90;14.73;;;;;;;1.24;78.81;102540.91;8190655;35;20901;-75
2022/01/12 07:17:45;;;;;;;27.30;15.73;;;;;;;1.24;78.81;102540.91;8169992;35;20503;-74
2022/01/12 07:22:49;;;;;;;33.28;16.42;;;;;;;1.42;78.11;102542.50;8170098;35;20195;-76
2022/01/12 07:27:52;;;;;;;29.25;16.17;;;;;;;1.41;77.53;102559.28;8171034;35;20191;-77
2022/01/12 07:32:56;;;;;;;26.67;13.63;;;;;;;1.47;77.08;102564.53;8171636;35;20317;-78
2022/01/12 07:37:59;;;;;;;28.85;15.80;;;;;;;1.55;77.11;102583.03;8190551;35;21126;-77
2022/01/12 07:43:03;;;;;;;28.80;17.63;;;;;;;1.67;76.75;102590.84;8170589;35;20503;-77
2022/01/12 07:48:07;;;;;;;29.83;16.20;;;;;;;1.71;76.41;102613.78;8170734;35;20195;-77
2022/01/12 07:53:10;;;;;;;32.17;17.45;;;;;;;1.44;77.62;102615.75;8170233;35;20640;-75
2022/01/12 07:58:13;;;;;;;34.85;16.88;;;;;;;1.60;76.67;102623.59;8170163;35;20531;-75
2022/01/12 08:03:20;;;;;;;30.90;17.48;;;;;;;1.62;76.95;102627.09;8170352;35;21876;-75
2022/01/12 08:08:23;;;;;;;32.08;16.60;;;;;;;1.57;76.87;102631.59;8171234;35;21137;-78
2022/01/12 08:13:26;;;;;;;32.53;18.90;;;;;;;1.83;77.22;102621.63;8172684;35;20164;-78
2022/01/12 08:18:31;;;;;;;32.88;18.73;;;;;;;1.59;77.35;102638.63;8171666;35;20944;-76
2022/01/12 08:23:34;;;;;;;35.65;18.27;;;;;;;1.75;77.29;102641.13;8170847;35;20211;-77
2022/01/12 08:28:41;;;;;;;42.88;21.02;;;;;;;1.61;77.39;102644.78;8166973;35;20132;-78
2022/01/12 08:33:46;;;;;;;36.03;18.85;;;;;;;1.56;78.32;102633.31;8170358;35;20142;-77
2022/01/12 08:38:49;;;;;;;39.97;20.15;;;;;;;1.48;79.00;102625.47;8171818;35;20652;-77
2022/01/12 08:43:52;;;;;;;37.08;20.58;;;;;;;1.75;78.20;102633.19;8172454;35;20191;-78
2022/01/12 08:48:57;;;;;;;37.05;19.23;;;;;;;1.75;78.27;102643.78;8172234;35;20354;-77
2022/01/12 08:54:00;;;;;;;36.95;16.23;;;;;;;1.53;79.36;102640.44;8179689;35;20191;-77
2022/01/12 08:59:03;;;;;;;38.35;20.08;;;;;;;1.71;78.95;102638.53;8173221;35;20180;-78
2022/01/12 09:04:08;;;;;;;36.25;19.65;;;;;;;2.00;78.42;102647.09;8182576;35;20171;-77
2022/01/12 09:09:11;;;;;;;34.28;19.27;;;;;;;1.57;79.24;102653.66;8188833;35;20221;-78
2022/01/12 09:14:15;;;;;;;42.05;20.05;;;;;;;1.78;79.64;102665.84;8171412;35;20258;-78
2022/01/12 09:19:19;;;;;;;39.88;19.92;;;;;;;1.63;79.55;102682.75;8171225;35;20202;-77
2022/01/12 09:24:23;;;;;;;37.35;20.00;;;;;;;1.77;79.54;102687.06;8186429;35;20211;-78
2022/01/12 09:29:26;;;;;;;36.63;19.48;;;;;;;1.87;78.92;102691.41;8168201;35;20258;-77
2022/01/12 09:34:30;;;;;;;40.33;19.50;;;;;;;1.91;78.93;102701.09;8167792;35;20191;-77
2022/01/12 09:39:35;;;;;;;41.28;19.58;;;;;;;1.84;79.28;102700.28;8169320;35;20200;-77
2022/01/12 09:44:43;;;;;;;39.47;18.50;;;;;;;1.99;78.96;102691.31;8168324;35;20278;-79
2022/01/12 09:49:48;;;;;;;34.47;18.02;;;;;;;1.84;79.54;102697.63;8187930;35;20676;-76
2022/01/12 09:54:51;;;;;;;38.17;20.08;;;;;;;1.79;80.09;102706.50;8168866;35;21421;-79
2022/01/12 09:59:54;;;;;;;38.13;18.38;;;;;;;1.92;80.08;102706.41;8164068;35;20148;-77
2022/01/12 10:05:05;;;;;;;43.75;19.55;;;;;;;2.00;79.83;102700.13;8171020;35;20226;-77
2022/01/12 10:10:14;;;;;;;42.35;19.42;;;;;;;2.03;79.99;102697.44;8170596;35;20191;-77
2022/01/12 10:15:17;;;;;;;39.80;21.25;;;;;;;2.15;79.51;102700.00;8171664;35;21057;-78
2022/01/12 10:20:24;;;;;;;47.17;22.00;;;;;;;2.41;78.96;102705.06;8178413;35;20246;-78
2022/01/12 10:25:30;;;;;;;37.95;18.45;;;;;;;2.54;78.59;102679.31;8177596;35;20574;-78
2022/01/12 10:30:34;;;;;;;45.60;22.10;;;;;;;2.46;78.42;102689.09;8170348;35;20157;-77
2022/01/12 10:35:41;;;;;;;47.75;20.60;;;;;;;2.59;78.37;102694.28;8171776;35;20567;-78
2022/01/12 10:40:47;;;;;;;51.03;21.35;;;;;;;2.54;78.56;102687.28;8171212;35;20235;-78
2022/01/12 10:45:50;;;;;;;39.63;20.75;;;;;;;2.58;78.93;102697.84;8170982;35;20191;-77
2022/01/12 10:50:56;;;;;;;44.85;20.17;;;;;;;2.73;78.15;102706.53;8174385;35;20183;-78
2022/01/12 10:56:05;;;;;;;45.38;20.83;;;;;;;2.75;78.45;102704.75;8198990;35;20236;-78
2022/01/12 11:01:09;;;;;;;44.10;19.73;;;;;;;2.86;78.00;102708.16;8175286;35;20254;-77
2022/01/12 11:06:15;;;;;;;50.67;20.80;;;;;;;2.68;78.48;102714.53;8174754;35;20728;-77
2022/01/12 11:11:21;;;;;;;45.67;20.23;;;;;;;2.68;78.13;102706.56;8194506;35;20211;-78
2022/01/12 11:16:26;;;;;;;39.80;19.20;;;;;;;2.79;78.50;102711.75;8175931;35;20223;-78
2022/01/12 11:21:41;;;;;;;38.13;19.33;;;;;;;2.98;78.48;102712.44;8174094;35;20254;-77
2022/01/12 11:26:49;;;;;;;41.00;19.33;;;;;;;2.96;77.79;102714.22;8174641;35;21176;-78
2022/01/12 11:31:52;;;;;;;40.58;19.75;;;;;;;2.80;78.93;102703.78;8172846;35;20156;-78
2022/01/12 11:36:57;;;;;;;34.72;17.80;;;;;;;2.92;78.76;102716.03;8185397;35;20160;-77
2022/01/12 11:42:00;;;;;;;46.55;19.50;;;;;;;3.00;78.43;102719.47;8187015;35;20328;-77
2022/01/12 11:47:05;;;;;;;40.30;19.02;;;;;;;2.95;79.00;102709.81;8188714;35;20261;-77
2022/01/12 11:52:17;;;;;;;39.65;16.90;;;;;;;3.05;78.21;102707.03;8194933;35;20167;-76
2022/01/12 11:57:31;;;;;;;37.97;18.50;;;;;;;3.54;76.78;102704.59;8171231;35;20717;-78
2022/01/12 12:02:44;;;;;;;37.67;17.40;;;;;;;3.82;75.11;102703.28;8194632;35;20431;-77
2022/01/12 12:07:52;;;;;;;36.15;16.98;;;;;;;4.06;74.58;102686.03;8176049;35;20266;-78
2022/01/12 12:12:58;;;;;;;34.25;17.00;;;;;;;4.28;73.69;102702.50;8173949;35;20302;-77
2022/01/12 12:18:04;;;;;;;31.95;16.52;;;;;;;4.20;73.48;102699.09;8194347;35;20493;-78
2022/01/12 12:23:08;;;;;;;31.02;18.05;;;;;;;4.39;73.30;102691.66;8174536;35;20471;-78
2022/01/12 12:28:13;;;;;;;39.60;17.65;;;;;;;3.97;74.69;102687.97;8174931;35;20331;-78
2022/01/12 12:33:16;;;;;;;29.90;15.93;;;;;;;3.75;75.20;102690.97;8174986;35;20653;-78
2022/01/12 12:38:21;;;;;;;35.65;17.50;;;;;;;3.76;75.33;102691.84;8174475;35;20191;-77
2022/01/12 12:43:33;;;;;;;36.17;16.23;;;;;;;4.86;73.62;102676.56;8177031;35;20461;-78
2022/01/12 12:48:39;;;;;;;42.25;17.80;;;;;;;6.68;66.29;102667.69;8173889;35;20183;-78
2022/01/12 12:53:47;;;;;;;34.50;17.95;;;;;;;6.54;65.19;102676.09;8175192;35;20164;-77
2022/01/12 12:58:52;;;;;;;23.00;14.77;;;;;;;6.57;65.90;102670.66;8199642;35;20156;-76
2022/01/12 13:03:57;;;;;;;35.58;15.32;;;;;;;6.73;64.44;102679.97;8173580;35;20191;-77
2022/01/12 13:09:05;;;;;;;38.65;15.32;;;;;;;6.92;64.52;102684.84;8193119;35;20188;-77
2022/01/12 13:14:11;;;;;;;27.70;14.02;;;;;;;7.17;63.86;102680.50;8194408;35;20231;-78
2022/01/12 13:19:22;;;;;;;24.20;12.63;;;;;;;7.23;62.82;102671.41;8174072;35;20687;-78
2022/01/12 13:24:27;;;;;;;26.50;13.93;;;;;;;7.11;64.14;102675.34;8173162;35;20220;-78
2022/01/12 13:29:30;;;;;;;27.23;14.02;;;;;;;6.87;64.41;102676.94;8174546;35;20270;-77
2022/01/12 13:34:41;;;;;;;24.38;11.57;;;;;;;5.86;66.62;102685.84;8173748;35;20203;-77
2022/01/12 13:39:47;;;;;;;23.65;11.50;;;;;;;5.05;69.26;102680.59;8173307;35;20187;-78
2022/01/12 13:45:04;;;;;;;25.58;11.52;;;;;;;4.50;71.12;102676.38;8173160;35;20681;-77
2022/01/12 13:50:10;;;;;;;24.58;12.52;;;;;;;4.09;73.12;102677.13;8178078;35;20508;-75
2022/01/12 13:55:16;;;;;;;29.25;12.93;;;;;;;4.25;72.87;102699.00;8223944;35;21399;-78
2022/01/12 14:00:20;;;;;;;29.48;16.08;;;;;;;3.98;73.88;102701.25;8176616;35;20223;-78
2022/01/12 14:05:36;;;;;;;26.08;13.48;;;;;;;3.95;73.60;102698.66;8178100;35;20723;-77
2022/01/12 14:10:45;;;;;;;32.08;13.68;;;;;;;3.54;74.89;102705.50;8177285;35;20152;-77
2022/01/12 14:15:48;;;;;;;29.67;14.07;;;;;;;3.39;75.87;102698.59;8173504;35;20706;-78
2022/01/12 14:20:51;;;;;;;26.55;14.07;;;;;;;3.76;75.40;102710.44;8170837;35;20267;-76
2022/01/12 14:25:55;;;;;;;29.10;13.98;;;;;;;3.93;74.10;102717.28;8170277;35;20243;-77
2022/01/12 14:31:00;;;;;;;33.97;16.13;;;;;;;4.12;73.36;102704.56;8170942;35;20812;-77
2022/01/12 14:36:05;;;;;;;37.92;18.27;;;;;;;4.13;74.31;102708.97;8173102;35;20153;-77
2022/01/12 14:41:10;;;;;;;37.67;16.95;;;;;;;3.80;74.58;102706.88;8171710;35;20738;-77
2022/01/12 14:46:14;;;;;;;37.20;17.15;;;;;;;3.48;75.63;102709.13;8172439;35;21418;-75
2022/01/12 14:51:17;;;;;;;36.58;16.25;;;;;;;3.30;76.45;102709.38;8175992;35;20198;-79
2022/01/12 14:56:21;;;;;;;32.50;15.80;;;;;;;3.01;77.90;102705.28;8181028;35;20218;-77
2022/01/12 15:01:24;;;;;;;34.60;16.20;;;;;;;2.99;77.75;102711.53;8178452;35;20225;-78
2022/01/12 15:06:28;;;;;;;26.65;16.25;;;;;;;2.97;77.94;102708.91;8173988;35;20147;-76
2022/01/12 15:11:39;;;;;;;37.67;19.08;;;;;;;2.99;78.05;102716.81;8175957;35;20195;-77
2022/01/12 15:16:42;;;;;;;42.53;18.83;;;;;;;2.79;78.81;102714.41;8174216;35;20241;-77
2022/01/12 15:21:45;;;;;;;39.78;18.27;;;;;;;2.71;79.19;102724.25;8176948;35;21091;-78
2022/01/12 15:26:50;;;;;;;34.95;17.00;;;;;;;2.44;80.06;102730.69;8179125;35;20469;-78
2022/01/12 15:31:52;;;;;;;44.90;19.33;;;;;;;2.51;80.16;102735.03;8174137;35;20191;-77
2022/01/12 15:36:56;;;;;;;41.95;19.20;;;;;;;2.44;80.56;102735.97;8170227;35;20314;-78
2022/01/12 15:42:00;;;;;;;40.72;18.77;;;;;;;2.44;80.57;102743.94;8173242;35;20659;-75
2022/01/12 15:47:05;;;;;;;39.03;20.00;;;;;;;2.25;81.40;102761.78;8171237;35;20184;-77
2022/01/12 15:52:09;;;;;;;39.22;20.60;;;;;;;2.34;81.12;102764.38;8165365;35;20514;-78
2022/01/12 15:57:15;;;;;;;37.70;18.33;;;;;;;2.39;81.09;102766.09;8172290;35;20262;-77
2022/01/12 16:02:18;;;;;;;42.53;18.58;;;;;;;2.39;80.97;102776.72;8168725;35;20214;-76
2022/01/12 16:07:22;;;;;;;43.00;19.33;;;;;;;2.42;80.54;102765.19;8169311;35;20207;-76
2022/01/12 16:12:26;;;;;;;36.33;18.05;;;;;;;2.40;80.60;102762.53;8170893;35;20310;-77
2022/01/12 16:17:49;;;;;;;35.28;17.52;;;;;;;2.32;80.97;102744.94;8164753;35;20216;-78
2022/01/12 16:22:52;;;;;;;37.95;18.50;;;;;;;2.19;81.65;102754.75;8169364;35;20171;-78
2022/01/12 16:27:57;;;;;;;39.42;17.38;;;;;;;2.31;81.15;102757.34;8191364;35;20286;-76
2022/01/12 16:33:00;;;;;;;39.90;18.65;;;;;;;2.43;80.83;102747.50;8168911;35;20240;-77
2022/01/12 16:38:03;;;;;;;36.75;18.33;;;;;;;2.46;80.48;102745.69;8167333;35;20202;-76
2022/01/12 16:43:08;;;;;;;40.50;19.45;;;;;;;2.48;80.41;102741.25;8177403;35;20694;-78
2022/01/12 16:48:11;;;;;;;34.45;17.40;;;;;;;2.37;80.58;102745.78;8180497;35;20199;-76
2022/01/12 16:53:15;;;;;;;36.90;16.63;;;;;;;2.31;80.77;102761.75;8177709;35;20279;-78
2022/01/12 16:58:19;;;;;;;39.05;18.90;;;;;;;2.31;80.86;102781.22;8193188;35;20193;-78
2022/01/12 17:03:22;;;;;;;38.00;17.98;;;;;;;2.32;80.68;102784.72;8181668;35;20188;-78
2022/01/12 17:08:25;;;;;;;38.10;18.33;;;;;;;2.28;80.72;102789.19;8171913;35;20151;-77
2022/01/12 17:13:30;;;;;;;43.35;18.65;;;;;;;2.09;81.33;102784.94;8170055;35;20219;-78
2022/01/12 17:18:58;;;;;;;35.60;16.85;;;;;;;1.99;81.75;102786.75;8168629;35;20215;-77
2022/01/12 17:24:25;;;;;;;40.80;18.25;;;;;;;1.89;81.76;102771.78;8159957;35;20566;-77
2022/01/12 17:29:29;;;;;;;42.38;18.55;;;;;;;1.81;82.22;102768.31;8167279;35;20271;-77
2022/01/12 17:34:34;;;;;;;47.40;19.77;;;;;;;1.65;82.88;102762.25;8169772;35;22164;-77
2022/01/12 17:39:40;;;;;;;34.35;17.08;;;;;;;1.68;82.39;102759.56;8165375;35;20203;-77
2022/01/12 17:44:48;;;;;;;38.40;18.00;;;;;;;1.66;82.52;102748.97;8167627;35;20735;-77
2022/01/12 17:50:11;;;;;;;40.10;17.95;;;;;;;1.56;82.93;102754.31;8168505;35;20285;-76
2022/01/12 17:55:18;;;;;;;36.17;17.20;;;;;;;1.64;82.34;102771.94;8158577;35;20194;-76
2022/01/12 18:00:27;;;;;;;42.03;18.65;;;;;;;1.59;82.90;102779.06;8163964;35;20221;-77
2022/01/12 18:05:31;;;;;;;34.80;15.38;;;;;;;1.54;82.48;102791.44;8167670;35;20255;-77
2022/01/12 18:10:34;;;;;;;37.25;16.60;;;;;;;1.43;82.79;102798.56;8167474;35;20187;-77
2022/01/12 18:15:41;;;;;;;38.75;17.95;;;;;;;1.30;82.55;102808.31;8167070;35;20251;-77
2022/01/12 18:20:45;;;;;;;38.42;18.38;;;;;;;1.35;82.61;102805.66;8166707;35;20191;-77
2022/01/12 18:25:48;;;;;;;32.75;16.50;;;;;;;1.38;82.57;102808.31;8172293;35;20701;-78
2022/01/12 18:30:53;;;;;;;43.33;18.35;;;;;;;1.43;82.48;102822.41;8170637;35;20552;-77
2022/01/12 18:35:56;;;;;;;40.65;18.92;;;;;;;1.53;82.12;102834.72;8168542;35;20663;-77
2022/01/12 18:40:59;;;;;;;40.28;18.38;;;;;;;1.54;81.85;102830.28;8168766;35;20192;-77
2022/01/12 18:46:04;;;;;;;33.92;17.00;;;;;;;1.52;81.63;102845.34;8169736;35;20270;-77
2022/01/12 18:51:07;;;;;;;34.78;16.67;;;;;;;1.37;81.76;102849.81;8171554;35;20476;-77
2022/01/12 18:56:10;;;;;;;37.33;16.35;;;;;;;1.33;82.07;102842.75;8168334;35;20155;-76
2022/01/12 19:01:15;;;;;;;33.72;15.48;;;;;;;1.35;81.79;102848.03;8173610;35;20179;-76
2022/01/12 19:06:35;;;;;;;31.17;14.63;;;;;;;1.28;81.68;102844.50;8167751;35;20234;-76
2022/01/12 19:11:40;;;;;;;31.25;14.40;;;;;;;0.93;82.60;102855.19;8192151;35;20152;-78
2022/01/12 19:16:47;;;;;;;38.63;15.95;;;;;;;0.98;82.34;102864.88;8175864;35;20192;-76
2022/01/12 19:21:50;;;;;;;36.20;14.70;;;;;;;0.92;83.21;102851.66;8173297;35;20208;-78
2022/01/12 19:26:54;;;;;;;33.83;14.50;;;;;;;0.98;82.75;102871.94;8173548;35;20227;-77
2022/01/12 19:31:58;;;;;;;30.58;16.08;;;;;;;1.12;82.14;102853.38;8174930;35;20309;-78
2022/01/12 19:37:01;;;;;;;37.30;17.92;;;;;;;1.08;82.19;102841.06;8174122;35;20685;-78
2022/01/12 19:42:05;;;;;;;25.88;12.88;;;;;;;1.03;82.06;102830.47;8173989;35;20622;-77
2022/01/12 19:47:14;;;;;;;32.15;15.15;;;;;;;1.01;82.49;102840.16;8194454;35;20580;-76
2022/01/12 19:52:33;;;;;;;28.00;13.95;;;;;;;1.02;81.98;102831.38;8174225;35;20251;-77
2022/01/12 19:57:39;;;;;;;29.50;14.05;;;;;;;1.07;81.67;102821.66;8173970;35;20251;-78
2022/01/12 20:02:59;;;;;;;32.13;14.38;;;;;;;0.97;82.16;102830.50;8171408;35;20154;-77
2022/01/12 20:08:35;;;;;;;25.95;11.38;;;;;;;0.87;82.42;102831.38;8191666;35;20475;-77
2022/01/12 20:13:38;;;;;;;27.80;12.38;;;;;;;0.79;82.48;102845.50;8163653;35;20256;-76
2022/01/12 20:24:27;;;;;;;32.33;14.98;;;;;;;1.12;81.00;102848.97;8173991;35;20191;-78
2022/01/12 20:29:34;;;;;;;27.73;12.57;;;;;;;0.64;82.72;102856.09;8175317;35;20469;-75
2022/01/12 20:34:41;;;;;;;34.72;16.88;;;;;;;1.00;81.81;102844.59;8173389;35;20156;-77
2022/01/12 20:39:46;;;;;;;34.83;15.95;;;;;;;0.72;82.79;102843.75;8176935;35;20499;-78
2022/01/12 20:44:52;;;;;;;36.45;17.85;;;;;;;0.78;82.76;102833.16;8195750;35;21167;-75
2022/01/12 20:49:57;;;;;;;34.10;17.50;;;;;;;0.86;82.25;102842.84;8173305;35;20504;-77
2022/01/12 20:55:01;;;;;;;42.88;19.70;;;;;;;0.75;82.73;102827.88;8172364;35;20191;-77
2022/01/12 21:00:06;;;;;;;47.00;19.20;;;;;;;0.60;83.02;102831.41;8182264;35;20191;-77
2022/01/12 21:05:12;;;;;;;49.65;20.92;;;;;;;0.73;82.57;102839.34;8172719;35;20183;-77
2022/01/12 21:10:15;;;;;;;44.70;21.25;;;;;;;0.70;82.85;102834.03;8171650;35;20152;-76
2022/01/12 21:15:20;;;;;;;48.08;19.65;;;;;;;0.72;82.54;102825.22;8170586;35;20764;-78
2022/01/12 21:20:24;;;;;;;51.17;22.63;;;;;;;0.91;82.08;102825.22;8170888;35;20191;-77
2022/01/12 21:25:29;;;;;;;42.83;18.53;;;;;;;0.86;82.41;102833.16;8181490;35;20242;-77
2022/01/12 21:30:32;;;;;;;45.97;20.00;;;;;;;0.88;82.23;102835.78;8172061;35;20500;-78
2022/01/12 21:35:39;;;;;;;35.47;15.27;;;;;;;0.67;83.55;102847.28;8190239;35;20421;-76
2022/01/12 21:40:45;;;;;;;50.17;18.40;;;;;;;0.93;82.29;102831.34;8166423;35;20188;-77
2022/01/12 21:45:50;;;;;;;42.38;15.90;;;;;;;1.10;81.42;102819.00;8188374;35;20570;-78
2022/01/12 21:50:54;;;;;;;46.28;18.67;;;;;;;1.03;81.91;102831.34;8169416;35;20196;-78
2022/01/12 21:55:57;;;;;;;28.73;11.43;;;;;;;0.64;82.64;102839.34;8170547;35;21131;-76
2022/01/12 22:01:00;;;;;;;50.15;21.85;;;;;;;0.88;82.63;102838.41;8166566;35;20785;-76
2022/01/12 22:06:06;;;;;;;48.67;20.75;;;;;;;1.06;82.19;102859.56;8166141;35;21501;-77
2022/01/12 22:11:10;;;;;;;32.85;14.52;;;;;;;0.65;82.99;102849.03;8163065;35;20491;-76
2022/01/12 22:16:13;;;;;;;49.72;21.70;;;;;;;1.14;82.03;102835.75;8167325;35;20195;-75
2022/01/12 22:21:22;;;;;;;50.22;19.05;;;;;;;0.91;82.33;102833.16;8187620;35;20483;-76
2022/01/12 22:26:25;;;;;;;54.30;21.85;;;;;;;0.84;82.70;102845.50;8165207;35;20218;-76
2022/01/12 22:31:28;;;;;;;41.42;16.65;;;;;;;0.73;82.88;102840.22;8166060;35;20263;-77
2022/01/12 22:36:33;;;;;;;66.40;22.67;;;;;;;0.60;83.02;102849.03;8164819;35;20231;-75
2022/01/12 22:41:36;;;;;;;61.05;23.17;;;;;;;0.51;84.07;102863.16;8162773;35;20871;-77
2022/01/12 22:46:39;;;;;;;70.65;27.98;;;;;;;0.79;83.57;102847.25;8167629;35;20199;-76
2022/01/12 22:51:44;;;;;;;87.32;29.13;;;;;;;0.80;83.29;102854.34;8185952;35;20650;-77
2022/01/12 22:56:55;;;;;;;69.90;24.27;;;;;;;0.59;83.87;102850.81;8174546;35;20192;-77
2022/01/12 23:01:58;;;;;;;62.05;23.73;;;;;;;0.45;84.53;102860.50;8173332;35;20243;-75
2022/01/12 23:07:03;;;;;;;83.97;32.83;;;;;;;0.78;83.75;102856.09;8209995;35;20248;-77
2022/01/12 23:12:08;;;;;;;89.75;33.03;;;;;;;0.84;83.25;102866.66;8199826;35;20199;-78
2022/01/12 23:17:13;;;;;;;85.50;32.55;;;;;;;0.73;83.15;102868.44;8178239;35;20243;-77
2022/01/12 23:22:17;;;;;;;73.40;30.05;;;;;;;0.85;83.23;102857.88;8175571;35;20255;-78
2022/01/12 23:27:21;;;;;;;88.07;32.33;;;;;;;0.46;84.50;102859.59;8174555;35;20156;-78
2022/01/12 23:32:24;;;;;;;83.97;30.42;;;;;;;0.74;84.23;102857.88;8173304;35;20208;-78
2022/01/12 23:43:12;;;;;;;75.13;31.95;;;;;;;0.89;83.30;102862.25;8172836;35;20914;-76
2022/01/12 23:48:33;;;;;;;81.07;32.40;;;;;;;1.08;83.01;102854.28;8169651;35;20215;-76
2022/01/12 23:58:58;;;;;;;91.43;36.15;;;;;;;1.01;83.60;102830.47;8169357;35;20167;-76
